Seneca Corners, Wisconsin
Current Conditions -  °F | °C
As of 10:54 AM on Friday 28 Nov 2014 (Local Time) from KISW Reporting Station
Overcast Overcast  
Wind Chill:   Ceiling: 8000
Heat Index: 16°   Visibility: NA
Dew Point: 10°   Wind: 7mph
Humidity: 77%   Direction: 150°SSE
Pressure: 30.05"   Gusts: NA
Location:  44.4583°N, 90.0009°W
Report Text: KISW 281654Z AUTO 15006KT OVC080 M09/M12 A3005 RMK AO2 SLP201 T10891122 $
Loading
Personal Weather Stations






























Interactive Weather Map New forecast layout! Learn more

10-Day Weather Forecast

Advertisements
Track Severe Weather on mobile